createdAt,value
2019-03-18T00:02:05.220Z,3.00
2019-03-18T00:05:18.793Z,3.00
2019-03-18T00:08:32.253Z,3.00
2019-03-18T00:11:45.697Z,2.99
2019-03-18T00:15:01.519Z,3.11
2019-03-18T00:18:14.792Z,3.06
2019-03-18T00:21:28.247Z,3.02
2019-03-18T00:24:41.699Z,3.00
2019-03-18T00:27:55.150Z,3.01
2019-03-18T00:31:08.855Z,3.04
2019-03-18T00:34:22.307Z,3.09
2019-03-18T00:37:35.772Z,3.16
2019-03-18T00:40:49.320Z,3.00
2019-03-18T00:44:09.946Z,2.99
2019-03-18T00:47:23.422Z,3.01
2019-03-18T00:50:36.879Z,3.04
2019-03-18T00:53:50.612Z,3.11
2019-03-18T00:57:04.195Z,3.14
2019-03-18T01:00:18.552Z,3.13
2019-03-18T01:03:32.022Z,2.98
2019-03-18T01:06:45.488Z,2.99
2019-03-18T01:09:58.959Z,3.07
2019-03-18T01:13:12.434Z,3.12
2019-03-18T01:16:25.918Z,3.15
2019-03-18T01:19:39.639Z,3.05
2019-03-18T01:22:53.123Z,3.10
2019-03-18T01:26:06.604Z,3.05
2019-03-18T01:29:20.087Z,3.02
2019-03-18T01:32:33.763Z,3.01
2019-03-18T01:35:47.243Z,2.95
2019-03-18T01:39:00.750Z,2.90
2019-03-18T01:42:16.720Z,2.88
2019-03-18T01:45:40.116Z,2.96
2019-03-18T01:48:44.983Z,3.01
2019-03-18T01:51:58.544Z,2.94
2019-03-18T01:55:12.133Z,3.00
2019-03-18T01:58:25.614Z,2.90
2019-03-18T02:01:39.097Z,2.90
2019-03-18T02:04:52.577Z,3.01
2019-03-18T02:08:06.060Z,2.99
2019-03-18T02:11:19.534Z,2.82
2019-03-18T02:14:33.006Z,2.88
2019-03-18T02:17:46.580Z,2.95
2019-03-18T02:21:00.053Z,3.02
2019-03-18T02:24:13.630Z,2.98
2019-03-18T02:27:27.108Z,2.93
2019-03-18T02:30:40.583Z,2.99
2019-03-18T02:33:54.280Z,2.90
2019-03-18T02:37:08.049Z,3.04
2019-03-18T02:40:21.569Z,3.01
2019-03-18T02:43:35.293Z,2.94
2019-03-18T02:46:49.349Z,2.97
2019-03-18T02:50:03.438Z,2.92
2019-03-18T02:53:16.925Z,2.97
2019-03-18T02:56:30.420Z,3.01
2019-03-18T02:59:43.967Z,3.12
2019-03-18T03:02:57.497Z,3.24
2019-03-18T03:06:10.960Z,3.34
2019-03-18T03:09:24.432Z,3.27
2019-03-18T03:12:38.077Z,3.42
2019-03-18T03:15:51.772Z,3.54
2019-03-18T03:19:06.065Z,3.55
2019-03-18T03:22:19.541Z,3.64
2019-03-18T03:25:33.033Z,3.77
2019-03-18T03:28:46.504Z,3.77
2019-03-18T03:31:59.994Z,3.73
2019-03-18T03:35:14.189Z,3.70
2019-03-18T03:38:28.146Z,3.69
2019-03-18T03:41:41.708Z,3.70
2019-03-18T03:44:55.178Z,3.85
2019-03-18T03:48:09.063Z,3.84
2019-03-18T03:51:22.570Z,3.96
2019-03-18T03:54:36.166Z,3.88
2019-03-18T03:57:50.207Z,3.83
2019-03-18T04:01:03.916Z,3.93
2019-03-18T04:04:17.471Z,3.85
2019-03-18T04:07:31.138Z,3.91
2019-03-18T04:10:44.819Z,3.85
2019-03-18T04:13:58.354Z,3.88
2019-03-18T04:17:11.827Z,3.80
2019-03-18T04:20:25.314Z,3.80
2019-03-18T04:23:38.802Z,3.82
2019-03-18T04:26:52.542Z,3.89
2019-03-18T04:30:06.749Z,3.84
2019-03-18T04:33:20.222Z,3.85
2019-03-18T04:36:33.832Z,3.86
2019-03-18T04:39:47.301Z,3.91
2019-03-18T04:43:01.013Z,3.81
2019-03-18T04:46:14.488Z,3.91
2019-03-18T04:49:30.689Z,3.89
2019-03-18T04:52:44.459Z,3.85
2019-03-18T04:55:57.930Z,3.89
2019-03-18T04:59:12.007Z,3.88
2019-03-18T05:02:25.468Z,3.81
2019-03-18T05:05:38.963Z,3.73
2019-03-18T05:08:54.994Z,3.72
2019-03-18T05:12:35.818Z,3.53
2019-03-18T05:15:49.411Z,3.62
2019-03-18T05:19:03.137Z,3.64
2019-03-18T05:22:16.989Z,3.61
2019-03-18T05:25:30.816Z,3.57
2019-03-18T05:28:44.283Z,3.35
2019-03-18T05:31:57.764Z,3.28
2019-03-18T05:35:11.517Z,3.27
2019-03-18T05:38:25.014Z,3.29
2019-03-18T05:41:38.771Z,3.20
2019-03-18T05:44:52.246Z,3.24
2019-03-18T05:48:06.012Z,3.27
2019-03-18T05:51:19.501Z,3.22
2019-03-18T05:54:32.969Z,3.27
2019-03-18T05:57:46.440Z,3.15
2019-03-18T06:00:59.915Z,3.16
2019-03-18T06:07:40.678Z,3.19
2019-03-18T06:10:54.168Z,3.14
2019-03-18T06:14:07.976Z,3.24
2019-03-18T06:17:21.477Z,3.22
2019-03-18T06:20:34.978Z,3.15
2019-03-18T06:23:48.449Z,3.18
2019-03-18T06:27:01.922Z,3.21
2019-03-18T06:30:15.601Z,3.20
2019-03-18T06:33:29.067Z,3.21
2019-03-18T06:36:42.901Z,3.27
2019-03-18T06:39:56.380Z,3.29
2019-03-18T06:43:10.172Z,3.36
2019-03-18T06:46:23.911Z,3.50
2019-03-18T06:49:37.377Z,3.67
2019-03-18T06:52:58.809Z,3.84
2019-03-18T06:56:12.534Z,4.07
2019-03-18T06:59:25.997Z,4.15
2019-03-18T07:02:39.535Z,4.29
2019-03-18T07:05:53.036Z,4.40
2019-03-18T07:09:06.800Z,4.41
2019-03-18T07:12:20.289Z,4.42
2019-03-18T07:15:33.775Z,4.38
2019-03-18T07:18:47.570Z,4.40
2019-03-18T07:22:01.042Z,4.37
2019-03-18T07:25:14.609Z,4.55
2019-03-18T07:28:28.473Z,4.58
2019-03-18T07:31:41.946Z,4.58
2019-03-18T07:34:55.711Z,4.63
2019-03-18T07:38:09.527Z,4.74
2019-03-18T07:41:23.121Z,4.87
2019-03-18T07:44:36.902Z,4.99
2019-03-18T07:47:50.646Z,4.92
2019-03-18T07:51:04.131Z,4.93
2019-03-18T07:54:17.715Z,4.89
2019-03-18T07:57:32.747Z,4.83
2019-03-18T08:00:46.392Z,4.85
2019-03-18T08:04:00.115Z,4.82
2019-03-18T08:07:13.883Z,4.74
2019-03-18T08:10:27.608Z,4.77
2019-03-18T08:13:41.081Z,5.04
2019-03-18T08:16:54.567Z,5.50
2019-03-18T08:20:08.339Z,6.04
2019-03-18T08:23:21.938Z,6.50
2019-03-18T08:26:35.434Z,6.85
2019-03-18T08:29:49.192Z,7.08
2019-03-18T08:33:02.792Z,6.92
2019-03-18T08:36:16.284Z,7.08
2019-03-18T08:39:29.762Z,7.33
2019-03-18T08:42:43.278Z,7.14
2019-03-18T08:45:56.765Z,6.94
2019-03-18T08:49:10.240Z,6.93
2019-03-18T08:52:24.045Z,7.32
2019-03-18T08:55:37.899Z,7.49
2019-03-18T08:58:51.475Z,7.50
2019-03-18T09:02:05.487Z,7.50
2019-03-18T09:05:18.985Z,7.61
2019-03-18T09:08:32.643Z,7.70
2019-03-18T09:11:46.115Z,7.77
2019-03-18T09:14:59.602Z,7.88
2019-03-18T09:18:13.292Z,7.99
2019-03-18T09:21:27.079Z,8.09
2019-03-18T09:24:40.599Z,8.34
2019-03-18T09:27:54.912Z,8.53
2019-03-18T09:31:08.418Z,8.50
2019-03-18T09:34:21.969Z,8.64
2019-03-18T09:37:35.548Z,8.41
2019-03-18T09:40:49.572Z,8.67
2019-03-18T09:44:03.357Z,8.81
2019-03-18T09:47:16.839Z,8.39
2019-03-18T09:50:30.535Z,8.14
2019-03-18T09:53:44.716Z,8.21
2019-03-18T09:56:58.279Z,8.80
2019-03-18T10:00:12.424Z,9.09
2019-03-18T10:03:26.062Z,9.01
2019-03-18T10:06:39.589Z,8.97
2019-03-18T10:09:53.334Z,9.30
2019-03-18T10:13:06.799Z,9.21
2019-03-18T10:16:20.441Z,9.14
2019-03-18T10:19:34.070Z,9.42
2019-03-18T10:22:47.487Z,9.53
2019-03-18T10:26:00.965Z,9.79
2019-03-18T10:29:14.444Z,9.52
2019-03-18T10:32:28.190Z,9.41
2019-03-18T10:35:41.675Z,9.40
2019-03-18T10:38:55.501Z,9.14
2019-03-18T10:42:09.065Z,8.99
2019-03-18T10:45:25.758Z,8.87
2019-03-18T10:48:38.535Z,8.91
2019-03-18T10:51:52.198Z,9.42
2019-03-18T10:55:07.137Z,9.70
2019-03-18T10:58:20.630Z,9.83
2019-03-18T11:01:34.119Z,9.80
2019-03-18T11:04:47.714Z,9.65
2019-03-18T11:08:01.273Z,10.14
2019-03-18T11:11:15.107Z,10.55
2019-03-18T11:14:28.587Z,11.23
2019-03-18T11:17:42.419Z,11.28
2019-03-18T11:20:56.353Z,11.63
2019-03-18T11:24:09.819Z,12.49
2019-03-18T11:27:23.326Z,13.05
2019-03-18T11:30:36.829Z,13.22
2019-03-18T11:33:50.315Z,13.03
2019-03-18T11:37:04.104Z,13.33
2019-03-18T11:40:18.120Z,13.60
2019-03-18T11:43:31.905Z,14.00
2019-03-18T11:46:46.043Z,14.28
2019-03-18T11:50:10.309Z,14.40
2019-03-18T11:53:15.385Z,13.93
2019-03-18T11:56:29.352Z,14.15
2019-03-18T11:59:43.318Z,14.30
2019-03-18T12:02:57.248Z,14.46
2019-03-18T12:06:10.726Z,14.59
2019-03-18T12:09:24.349Z,13.94
2019-03-18T12:12:37.880Z,13.42
2019-03-18T12:15:51.555Z,14.04
2019-03-18T12:19:05.525Z,14.03
2019-03-18T12:22:19.219Z,13.78
2019-03-18T12:25:33.858Z,13.09
2019-03-18T12:28:48.207Z,13.28
2019-03-18T12:32:01.942Z,14.04
2019-03-18T12:35:15.556Z,14.69
2019-03-18T12:38:29.369Z,14.47
2019-03-18T12:41:42.843Z,13.74
2019-03-18T12:44:56.423Z,12.71
2019-03-18T12:48:09.883Z,11.66
2019-03-18T12:51:23.575Z,10.95
2019-03-18T12:54:37.179Z,9.69
2019-03-18T12:57:50.641Z,8.85
2019-03-18T13:01:12.610Z,8.19
2019-03-18T13:04:19.727Z,7.62
2019-03-18T13:07:33.300Z,7.55
2019-03-18T13:10:46.787Z,7.76
2019-03-18T13:14:00.257Z,8.10
2019-03-18T13:17:13.728Z,9.12
2019-03-18T13:20:27.324Z,10.27
2019-03-18T13:23:41.134Z,10.81
2019-03-18T13:26:54.623Z,11.44
2019-03-18T13:30:10.839Z,12.35
2019-03-18T13:33:24.298Z,13.04
2019-03-18T13:36:37.883Z,13.26
2019-03-18T13:39:51.468Z,13.71
2019-03-18T13:43:05.191Z,13.78
2019-03-18T13:46:18.872Z,13.75
2019-03-18T13:49:32.928Z,14.12
2019-03-18T13:52:46.505Z,14.57
2019-03-18T13:56:00.145Z,14.81
2019-03-18T13:59:13.734Z,15.03
2019-03-18T14:02:27.343Z,15.01
2019-03-18T14:05:41.111Z,14.20
2019-03-18T14:08:54.585Z,14.47
2019-03-18T14:12:08.266Z,15.48
2019-03-18T14:15:21.854Z,15.40
2019-03-18T14:18:35.545Z,15.09
2019-03-18T14:21:49.075Z,14.96
2019-03-18T14:25:03.090Z,15.40
2019-03-18T14:28:16.573Z,15.12
2019-03-18T14:31:30.333Z,13.92
2019-03-18T14:34:43.809Z,12.62
2019-03-18T14:37:57.590Z,11.77
2019-03-18T14:41:11.107Z,11.30
2019-03-18T14:44:24.695Z,10.01
2019-03-18T14:47:38.189Z,9.34
2019-03-18T14:50:51.767Z,8.79
2019-03-18T14:54:05.367Z,8.20
2019-03-18T14:57:18.846Z,8.14
2019-03-18T15:00:32.493Z,7.79
2019-03-18T15:03:45.968Z,7.70
2019-03-18T15:06:59.473Z,7.48
2019-03-18T15:10:13.188Z,7.13
2019-03-18T15:13:31.182Z,6.94
2019-03-18T15:16:42.090Z,7.33
2019-03-18T15:19:55.572Z,8.95
2019-03-18T15:23:09.470Z,10.34
2019-03-18T15:26:22.955Z,11.32
2019-03-18T15:29:36.798Z,12.04
2019-03-18T15:32:50.452Z,12.85
2019-03-18T15:36:04.459Z,13.15
2019-03-18T15:39:17.956Z,13.30
2019-03-18T15:42:31.858Z,13.33
2019-03-18T15:45:45.550Z,12.33
2019-03-18T15:48:59.485Z,11.22
2019-03-18T15:52:13.001Z,11.12
2019-03-18T15:55:26.758Z,12.00
2019-03-18T15:58:40.243Z,12.08
2019-03-18T16:01:53.728Z,11.81
2019-03-18T16:05:07.747Z,11.79
2019-03-18T16:08:21.618Z,12.24
2019-03-18T16:11:35.382Z,12.10
2019-03-18T16:14:48.858Z,11.62
2019-03-18T16:18:02.642Z,10.93
2019-03-18T16:21:16.102Z,10.62
2019-03-18T16:24:30.032Z,10.63
2019-03-18T16:27:43.603Z,11.07
2019-03-18T16:30:57.077Z,10.99
2019-03-18T16:34:10.678Z,10.89
2019-03-18T16:37:24.443Z,10.77
2019-03-18T16:40:38.037Z,10.43
2019-03-18T16:43:51.765Z,9.96
2019-03-18T16:47:08.472Z,9.75
2019-03-18T16:50:22.051Z,9.43
2019-03-18T16:53:35.880Z,9.31
2019-03-18T16:56:49.361Z,9.10
2019-03-18T17:00:03.629Z,8.89
2019-03-18T17:03:17.118Z,8.65
2019-03-18T17:06:31.027Z,8.42
2019-03-18T17:09:44.552Z,8.26
2019-03-18T17:12:58.033Z,8.06
2019-03-18T17:16:11.867Z,7.95
2019-03-18T17:19:25.498Z,7.89
2019-03-18T17:22:49.031Z,7.69
2019-03-18T17:25:54.556Z,7.53
2019-03-18T17:29:08.146Z,7.40
2019-03-18T17:32:21.639Z,7.31
2019-03-18T17:35:35.219Z,7.17
2019-03-18T17:38:48.837Z,7.06
2019-03-18T17:42:02.727Z,6.88
2019-03-18T17:45:16.415Z,6.81
2019-03-18T17:48:30.117Z,6.68
2019-03-18T17:51:43.625Z,6.61
2019-03-18T17:54:57.118Z,6.50
2019-03-18T17:58:10.633Z,6.49
2019-03-18T18:01:24.161Z,6.48
2019-03-18T18:04:37.634Z,6.29
2019-03-18T18:07:51.130Z,6.22
2019-03-18T18:11:04.618Z,6.18
2019-03-18T18:14:18.089Z,6.16
2019-03-18T18:17:31.578Z,6.20
2019-03-18T18:20:45.081Z,6.29
2019-03-18T18:23:58.553Z,6.21
2019-03-18T18:27:12.031Z,6.14
2019-03-18T18:30:25.884Z,6.14
2019-03-18T18:33:39.481Z,6.15
2019-03-18T18:36:53.327Z,6.18
2019-03-18T18:40:08.669Z,6.16
2019-03-18T18:43:22.161Z,6.14
2019-03-18T18:46:35.680Z,6.13
2019-03-18T18:49:49.177Z,6.12
2019-03-18T18:53:03.106Z,6.11
2019-03-18T18:56:16.601Z,6.03
2019-03-18T18:59:30.076Z,6.01
2019-03-18T19:02:43.787Z,5.94
2019-03-18T19:05:57.262Z,5.87
2019-03-18T19:09:11.309Z,5.85
2019-03-18T19:12:24.800Z,5.73
2019-03-18T19:15:38.389Z,5.65
2019-03-18T19:18:51.873Z,5.60
2019-03-18T19:22:05.587Z,5.41
2019-03-18T19:25:19.245Z,5.24
2019-03-18T19:28:32.963Z,5.13
2019-03-18T19:31:46.459Z,4.99
2019-03-18T19:34:59.995Z,5.06
2019-03-18T19:38:14.046Z,5.15
2019-03-18T19:41:27.519Z,5.02
2019-03-18T19:44:41.007Z,4.99
2019-03-18T19:47:54.886Z,4.98
2019-03-18T19:51:08.350Z,4.99
2019-03-18T19:54:22.159Z,4.95
2019-03-18T19:57:35.999Z,4.96
2019-03-18T20:00:49.476Z,5.00
2019-03-18T20:04:03.197Z,5.02
2019-03-18T20:07:16.659Z,4.96
2019-03-18T20:10:30.156Z,4.98
2019-03-18T20:13:43.712Z,4.96
2019-03-18T20:16:57.198Z,4.98
2019-03-18T20:20:11.607Z,4.98
2019-03-18T20:23:25.377Z,4.94
2019-03-18T20:26:38.963Z,4.99
2019-03-18T20:29:52.445Z,4.93
2019-03-18T20:33:05.928Z,4.84
2019-03-18T20:36:19.634Z,4.78
2019-03-18T20:39:33.477Z,4.82
2019-03-18T20:42:47.252Z,4.75
2019-03-18T20:46:01.291Z,4.77
2019-03-18T20:49:16.993Z,4.84
2019-03-18T20:52:30.763Z,4.89
2019-03-18T20:55:44.761Z,4.87
2019-03-18T20:58:58.246Z,4.85
2019-03-18T21:02:11.737Z,4.88
2019-03-18T21:05:25.670Z,4.85
2019-03-18T21:08:39.219Z,4.88
2019-03-18T21:11:52.824Z,4.81
2019-03-18T21:15:07.174Z,4.76
2019-03-18T21:18:20.646Z,4.78
2019-03-18T21:21:34.127Z,4.78
2019-03-18T21:24:48.009Z,4.74
2019-03-18T21:28:01.581Z,4.70
2019-03-18T21:31:15.063Z,4.60
2019-03-18T21:34:28.877Z,4.58
2019-03-18T21:37:42.856Z,4.57
2019-03-18T21:40:56.333Z,4.57
2019-03-18T21:44:09.798Z,4.56
2019-03-18T21:47:23.409Z,4.50
2019-03-18T21:50:37.052Z,4.43
2019-03-18T21:57:17.778Z,4.34
2019-03-18T22:00:31.385Z,4.15
2019-03-18T22:03:44.859Z,4.07
2019-03-18T22:06:58.337Z,4.03
2019-03-18T22:10:12.142Z,3.96
2019-03-18T22:13:25.923Z,3.88
2019-03-18T22:16:39.663Z,3.74
2019-03-18T22:19:53.127Z,3.59
2019-03-18T22:23:06.744Z,3.52
2019-03-18T22:26:20.546Z,3.38
2019-03-18T22:29:34.062Z,3.15
2019-03-18T22:32:47.741Z,3.06
2019-03-18T22:36:03.414Z,3.01
2019-03-18T22:39:17.032Z,2.98
2019-03-18T22:42:30.829Z,2.97
2019-03-18T22:45:44.478Z,2.89
2019-03-18T22:48:58.076Z,2.82
2019-03-18T22:52:12.437Z,2.72
2019-03-18T22:55:25.920Z,2.58
2019-03-18T22:58:39.411Z,2.57
2019-03-18T23:01:52.950Z,2.50
2019-03-18T23:05:06.879Z,2.41
2019-03-18T23:08:20.661Z,2.30
2019-03-18T23:11:34.162Z,2.14
2019-03-18T23:14:47.666Z,2.09
2019-03-18T23:18:01.380Z,2.10
2019-03-18T23:21:14.895Z,2.10
2019-03-18T23:24:29.055Z,2.07
2019-03-18T23:27:42.556Z,2.04
2019-03-18T23:30:56.256Z,1.83
2019-03-18T23:34:10.433Z,1.76
2019-03-18T23:37:26.571Z,1.72
2019-03-18T23:40:40.405Z,1.67
2019-03-18T23:43:53.883Z,1.66
2019-03-18T23:47:08.147Z,1.65
2019-03-18T23:50:21.715Z,1.55
2019-03-18T23:53:35.541Z,1.45
2019-03-18T23:56:49.167Z,1.44
